Time;durP1;ratioP1;P1;durP2;ratioP2;P2;SDS_P1;SDS_P2;PMS_P1;PMS_P2;Temp;Humidity;BMP_temperature;BMP_pressure;BME280_temperature;BME280_humidity;BME280_pressure;Samples;Min_cycle;Max_cycle;Signal;HPM_P1;HPM_P2
2023/04/24 00:03:36;;;;;;;16.30;6.20;;;;;;;;;;4920596;28;20056;-80
2023/04/24 00:07:20;;;;;;;14.20;6.30;;;;;;;;;;4919206;28;20052;-79
2023/04/24 00:10:59;;;;;;;16.13;6.10;;;;;;;;;;4921888;28;20047;-79
2023/04/24 00:14:40;;;;;;;15.43;6.28;;;;;;;;;;4916243;28;20477;-76
2023/04/24 00:18:20;;;;;;;14.40;6.28;;;;;;;;;;4917234;28;20059;-77
2023/04/24 00:22:01;;;;;;;11.13;6.30;;;;;;;;;;4919834;28;20043;-77
2023/04/24 00:25:41;;;;;;;14.75;6.25;;;;;;;;;;4918052;28;20060;-77
2023/04/24 00:29:21;;;;;;;11.65;6.10;;;;;;;;;;4915785;28;20322;-79
2023/04/24 00:33:01;;;;;;;12.50;6.45;;;;;;;;;;4917558;28;20047;-77
2023/04/24 00:36:43;;;;;;;12.65;6.53;;;;;;;;;;4922459;28;20043;-79
2023/04/24 00:40:25;;;;;;;12.98;6.95;;;;;;;;;;4914444;28;20062;-78
2023/04/24 00:44:05;;;;;;;13.82;7.03;;;;;;;;;;4915421;28;20797;-78
2023/04/24 00:47:45;;;;;;;15.88;7.03;;;;;;;;;;4917724;28;20139;-78
2023/04/24 00:51:27;;;;;;;13.60;6.97;;;;;;;;;;4918901;28;20864;-78
2023/04/24 00:55:06;;;;;;;11.77;6.68;;;;;;;;;;4912797;28;20056;-78
2023/04/24 00:58:46;;;;;;;17.63;6.82;;;;;;;;;;4915973;28;20048;-78
2023/04/24 01:02:26;;;;;;;13.50;7.18;;;;;;;;;;4918773;28;20166;-78
2023/04/24 01:06:07;;;;;;;17.15;8.00;;;;;;;;;;4915079;29;20050;-77
2023/04/24 01:09:48;;;;;;;16.92;6.95;;;;;;;;;;4919779;28;20110;-78
2023/04/24 01:13:27;;;;;;;14.00;6.75;;;;;;;;;;4931627;28;20059;-79
2023/04/24 01:17:09;;;;;;;15.80;6.53;;;;;;;;;;4915712;28;20046;-76
2023/04/24 01:20:48;;;;;;;16.00;7.28;;;;;;;;;;4920449;28;20213;-78
2023/04/24 01:24:29;;;;;;;13.00;7.22;;;;;;;;;;4915155;28;20091;-76
2023/04/24 01:28:09;;;;;;;16.02;7.25;;;;;;;;;;4912641;28;20058;-78
2023/04/24 01:31:50;;;;;;;16.67;7.40;;;;;;;;;;4913881;28;20657;-77
2023/04/24 01:35:30;;;;;;;13.57;7.35;;;;;;;;;;4914330;28;20055;-78
2023/04/24 01:39:10;;;;;;;12.82;7.43;;;;;;;;;;4914537;29;20140;-78
2023/04/24 01:42:51;;;;;;;14.52;7.57;;;;;;;;;;4916870;28;20798;-78
2023/04/24 01:46:31;;;;;;;16.13;7.43;;;;;;;;;;4912707;29;20154;-78
2023/04/24 01:50:11;;;;;;;20.45;7.63;;;;;;;;;;4912666;28;20081;-77
2023/04/24 01:53:52;;;;;;;19.30;8.02;;;;;;;;;;4916280;28;20142;-78
2023/04/24 01:57:32;;;;;;;17.42;9.07;;;;;;;;;;4914792;28;20067;-79
2023/04/24 02:01:12;;;;;;;16.20;8.27;;;;;;;;;;4914557;29;20087;-77
2023/04/24 02:04:53;;;;;;;14.55;8.02;;;;;;;;;;4913876;28;20047;-76
2023/04/24 02:08:34;;;;;;;16.33;8.73;;;;;;;;;;4912811;28;20047;-78
2023/04/24 02:12:15;;;;;;;20.48;8.80;;;;;;;;;;4926188;28;20069;-77
2023/04/24 02:15:55;;;;;;;20.30;9.30;;;;;;;;;;4906234;29;20444;-78
2023/04/24 02:19:35;;;;;;;15.95;9.32;;;;;;;;;;4917199;28;20086;-79
2023/04/24 02:23:15;;;;;;;16.52;8.88;;;;;;;;;;4912929;28;20052;-80
2023/04/24 02:26:57;;;;;;;15.30;7.88;;;;;;;;;;4912683;28;20063;-79
2023/04/24 02:30:36;;;;;;;17.08;8.38;;;;;;;;;;4913278;28;20385;-77
2023/04/24 02:34:17;;;;;;;16.08;7.60;;;;;;;;;;4913155;28;20618;-78
2023/04/24 02:37:57;;;;;;;14.88;8.27;;;;;;;;;;4913644;29;20052;-78
2023/04/24 02:41:37;;;;;;;15.15;8.75;;;;;;;;;;4912918;28;20127;-78
2023/04/24 02:45:18;;;;;;;18.90;8.55;;;;;;;;;;4914222;28;20052;-76
2023/04/24 02:48:58;;;;;;;15.60;8.40;;;;;;;;;;4912181;28;20063;-78
2023/04/24 02:52:38;;;;;;;18.70;8.75;;;;;;;;;;4912531;28;20050;-77
2023/04/24 02:56:19;;;;;;;12.23;8.00;;;;;;;;;;4911613;28;20054;-76
2023/04/24 02:59:59;;;;;;;18.30;9.35;;;;;;;;;;4911356;28;20516;-78
2023/04/24 03:03:39;;;;;;;20.30;8.20;;;;;;;;;;4912487;28;20057;-78
2023/04/24 03:07:20;;;;;;;17.25;8.77;;;;;;;;;;4911309;28;20503;-77
2023/04/24 03:11:00;;;;;;;18.35;8.98;;;;;;;;;;4911599;28;20047;-79
2023/04/24 03:14:40;;;;;;;17.45;8.88;;;;;;;;;;4928109;28;20046;-78
2023/04/24 03:18:20;;;;;;;15.07;8.90;;;;;;;;;;4925048;28;20043;-79
2023/04/24 03:22:01;;;;;;;16.02;9.73;;;;;;;;;;4931802;28;20052;-78
2023/04/24 03:25:42;;;;;;;16.17;9.45;;;;;;;;;;4922636;29;20539;-78
2023/04/24 03:29:21;;;;;;;22.02;10.00;;;;;;;;;;4926195;29;20107;-77
2023/04/24 03:33:02;;;;;;;17.25;9.98;;;;;;;;;;4930932;29;20047;-77
2023/04/24 03:36:44;;;;;;;17.85;9.43;;;;;;;;;;4920881;29;20079;-77
2023/04/24 03:40:24;;;;;;;19.17;10.02;;;;;;;;;;4929820;28;20067;-77
2023/04/24 03:44:04;;;;;;;18.45;10.07;;;;;;;;;;4921933;29;20104;-77
2023/04/24 03:47:46;;;;;;;19.08;10.25;;;;;;;;;;4929897;28;20047;-77
2023/04/24 03:51:27;;;;;;;19.23;9.30;;;;;;;;;;4930645;29;20103;-78
2023/04/24 03:55:06;;;;;;;16.88;10.40;;;;;;;;;;4927140;28;20317;-76
2023/04/24 03:58:47;;;;;;;16.40;9.68;;;;;;;;;;4927961;29;20166;-78
2023/04/24 04:02:27;;;;;;;17.83;9.80;;;;;;;;;;4927767;28;20113;-77
2023/04/24 04:06:07;;;;;;;17.33;10.50;;;;;;;;;;4937690;28;20040;-79
2023/04/24 04:09:48;;;;;;;16.35;10.15;;;;;;;;;;4933295;28;20460;-79
2023/04/24 04:13:28;;;;;;;17.50;10.38;;;;;;;;;;4915103;28;20052;-78
2023/04/24 04:17:08;;;;;;;20.27;10.05;;;;;;;;;;4913689;28;21901;-77
2023/04/24 04:20:49;;;;;;;22.15;10.32;;;;;;;;;;4914563;28;20167;-77
2023/04/24 04:24:29;;;;;;;21.88;10.27;;;;;;;;;;4915127;28;20602;-77
2023/04/24 04:28:09;;;;;;;19.85;10.88;;;;;;;;;;4912104;28;20757;-78
2023/04/24 04:31:50;;;;;;;21.90;10.07;;;;;;;;;;4914849;29;20155;-76
2023/04/24 04:35:30;;;;;;;20.75;9.85;;;;;;;;;;4911279;28;20474;-76
2023/04/24 04:39:10;;;;;;;17.45;9.60;;;;;;;;;;4914399;28;20123;-76
2023/04/24 04:42:52;;;;;;;17.20;9.30;;;;;;;;;;4914525;28;20055;-80
2023/04/24 04:46:32;;;;;;;15.18;9.70;;;;;;;;;;4915998;28;20051;-78
2023/04/24 04:50:16;;;;;;;15.90;9.27;;;;;;;;;;4911324;28;20491;-78
2023/04/24 04:53:55;;;;;;;17.67;8.55;;;;;;;;;;4910860;28;20063;-78
2023/04/24 04:57:35;;;;;;;16.70;9.07;;;;;;;;;;4917181;28;20362;-76
2023/04/24 05:01:16;;;;;;;21.30;10.35;;;;;;;;;;4926874;29;20094;-77
2023/04/24 05:04:56;;;;;;;14.77;9.30;;;;;;;;;;4917972;28;20416;-78
2023/04/24 05:08:36;;;;;;;17.13;9.75;;;;;;;;;;4913010;28;20060;-78
2023/04/24 05:12:17;;;;;;;22.88;9.75;;;;;;;;;;4919069;28;20099;-76
2023/04/24 05:15:57;;;;;;;22.20;9.60;;;;;;;;;;4916306;28;20055;-79
2023/04/24 05:19:38;;;;;;;17.85;9.20;;;;;;;;;;4917432;28;20094;-77
2023/04/24 05:23:19;;;;;;;19.15;9.25;;;;;;;;;;4919277;28;20051;-78
2023/04/24 05:26:59;;;;;;;17.42;9.25;;;;;;;;;;4916966;28;20047;-79
2023/04/24 05:30:40;;;;;;;16.00;8.57;;;;;;;;;;4914267;28;20059;-78
2023/04/24 05:34:20;;;;;;;18.17;9.63;;;;;;;;;;4910181;28;20863;-78
2023/04/24 05:37:21;;;;;;;20.58;8.60;;;;;;;;;;4917182;28;20357;-78
2023/04/24 05:39:51;;;;;;;12.55;8.25;;;;;;;;;;4917663;28;20107;-77
2023/04/24 05:42:16;;;;;;;17.02;8.65;;;;;;;;;;4915240;29;20075;-79
2023/04/24 05:44:43;;;;;;;18.25;8.43;;;;;;;;;;4914052;28;20048;-77
2023/04/24 05:47:09;;;;;;;16.65;8.65;;;;;;;;;;4911467;28;20048;-76
2023/04/24 05:50:15;;;;;;;16.30;9.05;;;;;;;;;;4905932;28;20068;-77
2023/04/24 05:53:55;;;;;;;15.63;8.60;;;;;;;;;;4912459;28;20055;-76
2023/04/24 05:57:36;;;;;;;16.35;8.27;;;;;;;;;;4909359;28;20047;-73
2023/04/24 06:01:19;;;;;;;18.52;8.40;;;;;;;;;;4913435;28;20082;-76
2023/04/24 06:04:59;;;;;;;21.65;8.40;;;;;;;;;;4911512;28;20123;-76
2023/04/24 06:08:39;;;;;;;17.33;8.48;;;;;;;;;;4910507;28;20079;-75
2023/04/24 06:12:20;;;;;;;16.58;8.55;;;;;;;;;;4920853;28;20058;-73
2023/04/24 06:16:01;;;;;;;16.52;8.95;;;;;;;;;;4906211;28;20062;-75
2023/04/24 06:19:41;;;;;;;21.27;9.30;;;;;;;;;;4910165;28;20051;-75
2023/04/24 06:23:21;;;;;;;12.57;8.45;;;;;;;;;;4910644;28;20481;-75
2023/04/24 06:27:02;;;;;;;23.77;9.30;;;;;;;;;;4909088;28;20067;-78
2023/04/24 06:30:45;;;;;;;21.35;9.82;;;;;;;;;;4912939;28;20113;-74
2023/04/24 06:34:26;;;;;;;17.30;9.35;;;;;;;;;;4913341;29;20052;-78
2023/04/24 06:38:08;;;;;;;20.98;9.82;;;;;;;;;;4908316;29;20066;-78
2023/04/24 06:41:50;;;;;;;18.08;9.75;;;;;;;;;;4916701;28;20122;-78
2023/04/24 06:45:31;;;;;;;19.13;9.18;;;;;;;;;;4917285;29;20259;-79
2023/04/24 06:49:11;;;;;;;18.48;9.77;;;;;;;;;;4915674;29;20058;-79
2023/04/24 06:52:51;;;;;;;21.45;9.32;;;;;;;;;;4916235;29;20148;-81
2023/04/24 06:56:34;;;;;;;21.40;10.52;;;;;;;;;;4918582;28;20044;-80
2023/04/24 07:00:12;;;;;;;18.95;9.73;;;;;;;;;;4912160;28;20047;-81
2023/04/24 07:03:49;;;;;;;18.48;9.73;;;;;;;;;;4911094;29;20520;-78
2023/04/24 07:06:16;;;;;;;26.67;10.35;;;;;;;;;;4911192;29;20055;-78
2023/04/24 07:08:43;;;;;;;25.30;10.18;;;;;;;;;;4908480;29;20071;-80
2023/04/24 07:11:10;;;;;;;17.30;9.93;;;;;;;;;;4931495;29;20051;-79
2023/04/24 07:13:41;;;;;;;25.60;9.65;;;;;;;;;;4917999;28;20930;-76
2023/04/24 07:16:08;;;;;;;19.63;10.25;;;;;;;;;;4916425;29;20114;-80
2023/04/24 07:18:34;;;;;;;27.52;10.00;;;;;;;;;;4914732;29;21606;-80
2023/04/24 07:21:00;;;;;;;17.08;7.78;;;;;;;;;;4922722;29;20055;-81
2023/04/24 07:23:27;;;;;;;17.92;8.85;;;;;;;;;;4920767;28;20501;-80
2023/04/24 07:25:53;;;;;;;18.17;8.98;;;;;;;;;;4919354;29;20044;-80
2023/04/24 07:28:21;;;;;;;17.30;9.07;;;;;;;;;;4919050;29;20055;-82
2023/04/24 07:30:47;;;;;;;14.25;8.82;;;;;;;;;;4923111;28;20055;-81
2023/04/24 07:33:13;;;;;;;15.82;7.80;;;;;;;;;;4921245;28;20110;-79
2023/04/24 07:35:40;;;;;;;12.77;7.53;;;;;;;;;;4924238;29;20406;-82
2023/04/24 07:38:07;;;;;;;11.27;7.10;;;;;;;;;;4924728;29;20024;-81
2023/04/24 07:40:33;;;;;;;10.45;6.55;;;;;;;;;;4925257;28;20051;-80
2023/04/24 07:42:59;;;;;;;14.63;6.68;;;;;;;;;;4930195;28;20058;-82
2023/04/24 07:45:27;;;;;;;9.80;5.85;;;;;;;;;;4928428;28;20063;-79
2023/04/24 07:47:54;;;;;;;14.57;5.20;;;;;;;;;;4928248;28;20142;-79
2023/04/24 07:50:21;;;;;;;12.68;6.28;;;;;;;;;;4920634;28;20059;-79
2023/04/24 07:52:48;;;;;;;12.15;5.32;;;;;;;;;;4917423;29;20059;-76
2023/04/24 07:55:14;;;;;;;8.70;3.80;;;;;;;;;;4919628;29;20058;-80
2023/04/24 07:57:39;;;;;;;12.65;4.75;;;;;;;;;;4917452;29;20335;-79
2023/04/24 08:00:07;;;;;;;10.00;4.85;;;;;;;;;;4942344;28;20062;-81
2023/04/24 08:02:33;;;;;;;12.50;4.43;;;;;;;;;;4948787;28;20083;-81
2023/04/24 08:04:59;;;;;;;8.43;4.40;;;;;;;;;;4927838;29;20059;-79
2023/04/24 08:07:25;;;;;;;7.50;3.72;;;;;;;;;;4925525;29;20055;-78
2023/04/24 08:09:51;;;;;;;8.02;4.10;;;;;;;;;;4925038;28;20111;-79
2023/04/24 08:12:17;;;;;;;8.90;4.53;;;;;;;;;;4919766;29;20051;-78
2023/04/24 08:14:43;;;;;;;7.90;3.88;;;;;;;;;;4918972;29;20055;-77
2023/04/24 08:17:09;;;;;;;10.07;4.10;;;;;;;;;;4922400;29;20611;-81
2023/04/24 08:19:35;;;;;;;9.80;4.20;;;;;;;;;;4931193;29;20056;-79
2023/04/24 08:22:03;;;;;;;9.57;5.00;;;;;;;;;;4931220;28;20052;-80
2023/04/24 08:24:30;;;;;;;9.57;4.28;;;;;;;;;;4921030;28;20110;-76
2023/04/24 08:26:59;;;;;;;5.93;3.53;;;;;;;;;;4933485;29;20044;-76
2023/04/24 08:29:27;;;;;;;7.90;3.53;;;;;;;;;;4920282;28;20047;-81
2023/04/24 08:31:54;;;;;;;10.05;3.58;;;;;;;;;;4919080;28;20051;-79
2023/04/24 08:34:21;;;;;;;10.05;3.80;;;;;;;;;;4926354;28;20356;-81
2023/04/24 08:36:48;;;;;;;8.75;3.85;;;;;;;;;;4942236;29;20079;-83
2023/04/24 08:39:14;;;;;;;9.02;3.83;;;;;;;;;;4939284;29;20059;-81
2023/04/24 08:42:20;;;;;;;12.25;3.83;;;;;;;;;;4916772;29;20056;-78
2023/04/24 08:46:00;;;;;;;8.68;3.75;;;;;;;;;;4917847;29;20081;-78
2023/04/24 08:49:41;;;;;;;5.55;3.20;;;;;;;;;;4926331;29;20040;-81
2023/04/24 08:53:21;;;;;;;6.72;3.05;;;;;;;;;;5056744;23;20027;-81
2023/04/24 08:57:03;;;;;;;7.30;3.38;;;;;;;;;;4919798;29;20572;-81
2023/04/24 09:02:42;;;;;;;8.93;3.17;;;;;;;;;;4997487;23;20056;-78
2023/04/24 09:05:10;;;;;;;6.75;2.83;;;;;;;;;;4928854;29;20048;-80
2023/04/24 09:08:15;;;;;;;9.88;3.35;;;;;;;;;;4928691;29;20044;-81
2023/04/24 09:11:56;;;;;;;8.82;3.17;;;;;;;;;;4927150;29;20473;-81
2023/04/24 09:15:37;;;;;;;6.28;3.15;;;;;;;;;;4914736;29;20044;-79
2023/04/24 09:19:17;;;;;;;15.45;3.28;;;;;;;;;;4893545;29;20051;-81
2023/04/24 09:22:57;;;;;;;15.43;5.45;;;;;;;;;;4908282;29;20588;-80
2023/04/24 09:26:17;;;;;;;6.38;3.03;;;;;;;;;;4904843;29;20035;-80
2023/04/24 09:29:22;;;;;;;8.55;3.08;;;;;;;;;;4901304;29;20036;-78
2023/04/24 09:33:03;;;;;;;10.18;3.35;;;;;;;;;;4898348;29;20287;-80
2023/04/24 09:36:37;;;;;;;7.88;3.33;;;;;;;;;;4901302;29;20067;-79
2023/04/24 09:39:43;;;;;;;9.77;3.00;;;;;;;;;;4906049;29;20053;-80
2023/04/24 09:42:53;;;;;;;8.55;3.25;;;;;;;;;;4910645;29;20070;-83
2023/04/24 09:45:59;;;;;;;10.00;3.70;;;;;;;;;;4912194;29;20056;-79
2023/04/24 09:49:12;;;;;;;10.65;3.72;;;;;;;;;;4908867;29;20178;-81
2023/04/24 09:51:39;;;;;;;10.40;3.88;;;;;;;;;;4931088;29;20036;-82
2023/04/24 09:56:41;;;;;;;6.30;2.60;;;;;;;;;;5172617;23;20032;-80
2023/04/24 10:00:22;;;;;;;8.63;3.38;;;;;;;;;;4874877;29;20076;-78
2023/04/24 10:04:06;;;;;;;13.18;3.92;;;;;;;;;;4873354;29;20136;-81
2023/04/24 10:07:48;;;;;;;9.63;3.22;;;;;;;;;;4987227;23;20055;-64
2023/04/24 10:11:28;;;;;;;15.18;3.05;;;;;;;;;;4907502;28;20070;-64
2023/04/24 10:15:09;;;;;;;7.63;2.58;;;;;;;;;;4930916;28;21566;-62
2023/04/24 10:18:49;;;;;;;6.72;2.70;;;;;;;;;;4928182;28;20167;-62
2023/04/24 10:22:30;;;;;;;9.30;2.72;;;;;;;;;;4928104;29;20118;-63
2023/04/24 10:26:09;;;;;;;10.20;2.70;;;;;;;;;;4925809;29;20040;-61
2023/04/24 10:29:50;;;;;;;4.72;1.90;;;;;;;;;;4929219;28;20472;-63
2023/04/24 10:33:32;;;;;;;6.97;2.45;;;;;;;;;;4927024;28;20035;-62
2023/04/24 10:37:13;;;;;;;6.10;2.20;;;;;;;;;;4927845;28;20401;-66
2023/04/24 10:40:53;;;;;;;13.38;3.15;;;;;;;;;;4912200;28;20059;-65
2023/04/24 10:44:26;;;;;;;3.67;1.63;;;;;;;;;;4909024;28;20411;-63
2023/04/24 10:48:13;;;;;;;10.48;2.67;;;;;;;;;;4906769;28;20056;-62
2023/04/24 10:52:10;;;;;;;12.32;2.83;;;;;;;;;;4908778;29;20143;-61
2023/04/24 10:55:59;;;;;;;5.93;1.95;;;;;;;;;;4905940;28;20645;-64
2023/04/24 10:59:45;;;;;;;23.45;3.78;;;;;;;;;;4908839;28;20521;-64
2023/04/24 11:03:28;;;;;;;16.75;2.75;;;;;;;;;;4908463;28;20087;-62
2023/04/24 11:07:13;;;;;;;12.65;2.47;;;;;;;;;;4909102;28;20047;-62
2023/04/24 11:10:53;;;;;;;23.27;3.70;;;;;;;;;;4921686;29;20416;-61
2023/04/24 11:13:59;;;;;;;5.45;1.40;;;;;;;;;;4905944;29;20051;-65
2023/04/24 11:17:52;;;;;;;8.43;2.20;;;;;;;;;;4908019;28;20805;-64
2023/04/24 11:20:54;;;;;;;8.52;1.92;;;;;;;;;;4908760;28;20051;-64
2023/04/24 11:23:21;;;;;;;6.78;1.58;;;;;;;;;;4910512;28;20114;-64
2023/04/24 11:26:18;;;;;;;5.40;1.98;;;;;;;;;;4909596;28;20543;-63
2023/04/24 11:28:50;;;;;;;33.53;3.85;;;;;;;;;;4911240;29;20058;-62
2023/04/24 11:31:39;;;;;;;15.95;3.13;;;;;;;;;;4911862;29;20309;-64
2023/04/24 11:34:10;;;;;;;22.77;2.97;;;;;;;;;;4910055;28;20055;-64
2023/04/24 11:36:36;;;;;;;20.33;3.25;;;;;;;;;;4910146;28;20114;-63
2023/04/24 11:39:05;;;;;;;17.42;3.53;;;;;;;;;;4910318;28;20056;-67
2023/04/24 11:41:32;;;;;;;7.68;1.75;;;;;;;;;;4911751;28;20185;-64
2023/04/24 11:43:59;;;;;;;4.78;1.25;;;;;;;;;;4924313;28;20051;-66
2023/04/24 11:46:29;;;;;;;15.05;2.13;;;;;;;;;;4912863;29;20055;-62
2023/04/24 11:48:56;;;;;;;15.88;2.55;;;;;;;;;;4913323;29;20059;-64
2023/04/24 11:51:27;;;;;;;7.68;2.38;;;;;;;;;;4911653;28;20052;-64
2023/04/24 11:53:56;;;;;;;15.57;2.85;;;;;;;;;;4911764;28;20059;-64
2023/04/24 11:56:23;;;;;;;13.32;2.97;;;;;;;;;;4907331;29;20143;-63
2023/04/24 11:58:54;;;;;;;20.45;3.10;;;;;;;;;;4908171;28;20529;-63
2023/04/24 12:01:21;;;;;;;26.08;3.72;;;;;;;;;;4909129;28;22455;-63
2023/04/24 12:03:50;;;;;;;13.93;3.03;;;;;;;;;;4907240;29;20051;-63
2023/04/24 12:06:17;;;;;;;10.48;2.67;;;;;;;;;;4910093;28;20056;-62
2023/04/24 12:08:46;;;;;;;9.32;2.13;;;;;;;;;;4912969;28;20075;-62
2023/04/24 12:11:17;;;;;;;7.82;1.98;;;;;;;;;;4915479;28;20062;-67
2023/04/24 12:13:45;;;;;;;9.70;2.58;;;;;;;;;;4920998;28;20059;-65
2023/04/24 12:16:11;;;;;;;9.43;2.10;;;;;;;;;;4910521;28;20154;-62
2023/04/24 12:18:45;;;;;;;6.50;1.80;;;;;;;;;;4913129;28;20052;-65
2023/04/24 12:21:14;;;;;;;;;;;;;;;;;;4911172;28;20091;-64
2023/04/24 12:23:45;;;;;;;5.70;2.20;;;;;;;;;;4911214;28;19931;-64
2023/04/24 12:26:22;;;;;;;6.57;1.60;;;;;;;;;;4913170;28;20341;-62
2023/04/24 12:28:49;;;;;;;3.92;1.95;;;;;;;;;;4912712;29;20107;-63
2023/04/24 12:31:16;;;;;;;4.97;2.00;;;;;;;;;;4910918;28;20059;-64
2023/04/24 12:33:43;;;;;;;4.50;2.10;;;;;;;;;;4910879;28;20051;-63
2023/04/24 12:36:13;;;;;;;9.40;1.67;;;;;;;;;;4914123;28;20109;-67
2023/04/24 12:38:44;;;;;;;7.30;1.90;;;;;;;;;;4914457;28;20071;-64
2023/04/24 12:41:12;;;;;;;7.82;2.72;;;;;;;;;;4917189;29;20139;-62
2023/04/24 12:43:50;;;;;;;3.85;1.88;;;;;;;;;;4895885;29;20063;-62
2023/04/24 12:46:16;;;;;;;10.07;1.95;;;;;;;;;;4912250;28;20056;-65
2023/04/24 12:48:43;;;;;;;9.60;2.10;;;;;;;;;;4911952;28;20063;-65
2023/04/24 12:51:09;;;;;;;7.55;1.70;;;;;;;;;;4912625;29;20504;-64
2023/04/24 12:53:35;;;;;;;8.38;1.75;;;;;;;;;;4908256;29;20060;-63
2023/04/24 12:56:01;;;;;;;8.18;1.60;;;;;;;;;;4910190;28;20066;-65
2023/04/24 12:58:28;;;;;;;6.47;1.77;;;;;;;;;;4912499;28;20051;-64
2023/04/24 13:00:55;;;;;;;7.50;2.00;;;;;;;;;;4912940;28;20123;-66
2023/04/24 13:03:23;;;;;;;6.43;2.03;;;;;;;;;;4916002;28;20131;-64
2023/04/24 13:05:50;;;;;;;13.57;2.45;;;;;;;;;;4908735;28;20051;-63
2023/04/24 13:08:16;;;;;;;17.67;2.97;;;;;;;;;;4909763;28;20091;-62
2023/04/24 13:10:42;;;;;;;30.63;3.38;;;;;;;;;;4917552;28;20063;-64
2023/04/24 13:13:09;;;;;;;8.27;2.20;;;;;;;;;;4921280;28;20059;-65
2023/04/24 13:15:35;;;;;;;7.40;2.03;;;;;;;;;;4909725;28;20059;-63
2023/04/24 13:18:01;;;;;;;6.57;1.92;;;;;;;;;;4910082;28;20058;-64
2023/04/24 13:20:29;;;;;;;4.72;1.92;;;;;;;;;;4926079;28;20063;-64
2023/04/24 13:22:57;;;;;;;6.00;1.65;;;;;;;;;;4911618;28;20087;-63
2023/04/24 13:25:23;;;;;;;6.22;1.90;;;;;;;;;;4923156;28;20179;-64
2023/04/24 13:27:49;;;;;;;10.57;1.95;;;;;;;;;;4912115;28;20075;-63
2023/04/24 13:30:15;;;;;;;6.70;1.80;;;;;;;;;;4911748;28;20078;-64
2023/04/24 13:32:42;;;;;;;4.85;2.00;;;;;;;;;;4912572;28;20481;-63
2023/04/24 13:35:11;;;;;;;7.20;1.95;;;;;;;;;;4911524;28;20581;-62
2023/04/24 13:37:38;;;;;;;7.72;1.85;;;;;;;;;;4922302;28;21742;-63
2023/04/24 13:40:05;;;;;;;7.20;1.95;;;;;;;;;;4910904;28;20056;-66
2023/04/24 13:42:33;;;;;;;29.00;4.28;;;;;;;;;;4913093;28;20051;-64
2023/04/24 13:44:59;;;;;;;21.02;3.63;;;;;;;;;;4910485;28;20052;-63
2023/04/24 13:47:26;;;;;;;17.00;2.95;;;;;;;;;;4913833;28;20055;-69
2023/04/24 13:49:53;;;;;;;22.75;3.85;;;;;;;;;;4911041;28;20495;-65
2023/04/24 13:52:20;;;;;;;9.38;2.47;;;;;;;;;;4911078;29;20393;-62
2023/04/24 13:54:46;;;;;;;15.40;3.17;;;;;;;;;;4910245;28;20242;-63
2023/04/24 13:57:16;;;;;;;9.93;2.85;;;;;;;;;;4906673;28;20589;-66
2023/04/24 13:59:42;;;;;;;61.08;5.57;;;;;;;;;;4913841;28;20429;-62
2023/04/24 14:02:09;;;;;;;31.05;3.63;;;;;;;;;;4912769;28;20060;-64
2023/04/24 14:04:35;;;;;;;62.55;4.80;;;;;;;;;;4912828;28;20171;-63
2023/04/24 14:07:02;;;;;;;9.07;2.08;;;;;;;;;;4912059;28;20070;-65
2023/04/24 14:09:27;;;;;;;15.15;2.50;;;;;;;;;;4913032;28;20052;-64
2023/04/24 14:11:54;;;;;;;6.80;2.25;;;;;;;;;;4929718;29;20596;-63
2023/04/24 14:14:20;;;;;;;16.33;2.85;;;;;;;;;;4929102;29;20052;-62
2023/04/24 14:16:46;;;;;;;69.45;5.38;;;;;;;;;;4911747;29;20220;-65
2023/04/24 14:19:11;;;;;;;55.42;4.65;;;;;;;;;;4912868;28;20051;-65
2023/04/24 14:21:38;;;;;;;37.42;3.80;;;;;;;;;;4907838;28;20056;-63
2023/04/24 14:24:06;;;;;;;21.58;3.35;;;;;;;;;;4905771;28;20056;-64
2023/04/24 14:26:39;;;;;;;23.38;3.45;;;;;;;;;;4910796;28;20159;-63
2023/04/24 14:29:05;;;;;;;9.40;2.30;;;;;;;;;;4907081;28;20051;-64
2023/04/24 14:31:31;;;;;;;41.30;4.25;;;;;;;;;;4909155;28;20689;-64
2023/04/24 14:33:57;;;;;;;20.05;3.10;;;;;;;;;;4907209;28;20515;-63
2023/04/24 14:36:23;;;;;;;27.77;3.17;;;;;;;;;;4908504;28;20056;-64
2023/04/24 14:38:49;;;;;;;8.90;2.08;;;;;;;;;;4906156;28;20054;-63
2023/04/24 14:41:20;;;;;;;14.63;2.60;;;;;;;;;;4907384;28;20444;-64
2023/04/24 14:43:46;;;;;;;13.18;2.35;;;;;;;;;;4905658;28;20051;-63
2023/04/24 14:46:12;;;;;;;7.18;1.70;;;;;;;;;;4904228;28;20047;-63
2023/04/24 14:48:38;;;;;;;8.95;1.77;;;;;;;;;;4901886;28;20644;-63
2023/04/24 14:51:05;;;;;;;12.30;2.10;;;;;;;;;;4907652;28;20107;-65
2023/04/24 14:53:31;;;;;;;12.23;2.30;;;;;;;;;;4907512;29;20046;-64
2023/04/24 14:55:57;;;;;;;6.80;1.70;;;;;;;;;;4909375;28;20389;-64
2023/04/24 14:58:23;;;;;;;8.00;2.10;;;;;;;;;;4909009;28;20748;-65
2023/04/24 15:00:54;;;;;;;6.47;1.90;;;;;;;;;;4903284;28;20421;-62
2023/04/24 15:03:20;;;;;;;6.15;1.85;;;;;;;;;;4904487;29;20166;-62
2023/04/24 15:05:47;;;;;;;9.70;2.03;;;;;;;;;;4906028;28;20054;-61
2023/04/24 15:08:13;;;;;;;7.28;1.95;;;;;;;;;;4911952;28;20401;-62
2023/04/24 15:10:41;;;;;;;12.43;1.83;;;;;;;;;;4920145;28;20602;-65
2023/04/24 15:13:07;;;;;;;6.60;2.17;;;;;;;;;;4915660;28;20080;-64
2023/04/24 15:15:33;;;;;;;6.63;2.00;;;;;;;;;;4915117;28;20269;-64
2023/04/24 15:17:59;;;;;;;6.13;1.73;;;;;;;;;;4912741;28;20055;-62
2023/04/24 15:20:27;;;;;;;5.43;1.73;;;;;;;;;;4912873;28;20144;-64
2023/04/24 15:22:52;;;;;;;4.80;1.83;;;;;;;;;;4906723;28;20240;-63
2023/04/24 15:25:18;;;;;;;3.78;1.50;;;;;;;;;;4911773;28;20075;-63
2023/04/24 15:27:45;;;;;;;3.15;1.67;;;;;;;;;;4907485;28;20052;-64
2023/04/24 15:30:13;;;;;;;4.40;1.80;;;;;;;;;;4907706;28;20071;-65
2023/04/24 15:32:39;;;;;;;5.05;1.45;;;;;;;;;;4900149;28;20055;-64
2023/04/24 15:35:06;;;;;;;4.95;1.77;;;;;;;;;;4908446;29;20059;-63
2023/04/24 15:37:32;;;;;;;5.10;1.48;;;;;;;;;;4906851;28;20216;-64
2023/04/24 15:39:59;;;;;;;6.03;2.00;;;;;;;;;;4910485;28;20123;-64
2023/04/24 15:42:27;;;;;;;5.50;1.42;;;;;;;;;;4912805;28;20134;-62
2023/04/24 15:44:53;;;;;;;3.70;1.40;;;;;;;;;;4925753;28;20076;-61
2023/04/24 15:47:20;;;;;;;6.75;1.73;;;;;;;;;;4910323;28;20174;-64
2023/04/24 15:49:46;;;;;;;4.43;1.48;;;;;;;;;;4911178;28;20512;-63
2023/04/24 15:52:13;;;;;;;4.20;1.75;;;;;;;;;;4908426;28;20080;-64
2023/04/24 15:54:40;;;;;;;7.10;2.10;;;;;;;;;;4899778;29;20158;-65
2023/04/24 15:57:06;;;;;;;4.60;1.55;;;;;;;;;;4909538;28;20424;-62
2023/04/24 15:59:34;;;;;;;6.32;2.08;;;;;;;;;;4910403;28;20063;-70
2023/04/24 16:02:00;;;;;;;7.72;1.58;;;;;;;;;;4913144;28;20060;-63
2023/04/24 16:04:26;;;;;;;8.20;1.80;;;;;;;;;;4909558;28;20899;-63
2023/04/24 16:06:52;;;;;;;4.97;2.17;;;;;;;;;;4910453;28;20064;-64
2023/04/24 16:09:19;;;;;;;3.88;1.52;;;;;;;;;;4917105;28;20070;-64
2023/04/24 16:11:46;;;;;;;4.90;1.60;;;;;;;;;;4904457;28;20079;-64
2023/04/24 16:14:13;;;;;;;5.47;1.77;;;;;;;;;;4912113;28;20138;-61
2023/04/24 16:16:39;;;;;;;3.88;1.45;;;;;;;;;;4902854;28;20067;-62
2023/04/24 16:19:07;;;;;;;3.40;1.60;;;;;;;;;;4908215;28;20530;-64
2023/04/24 16:21:33;;;;;;;7.50;1.73;;;;;;;;;;4911443;28;20147;-66
2023/04/24 16:24:00;;;;;;;5.68;1.67;;;;;;;;;;4911498;28;20883;-62
2023/04/24 16:26:27;;;;;;;6.57;1.83;;;;;;;;;;4910228;28;20056;-62
2023/04/24 16:28:54;;;;;;;7.32;1.70;;;;;;;;;;4909444;28;20151;-65
2023/04/24 16:31:20;;;;;;;6.28;1.80;;;;;;;;;;4918308;28;20056;-63
2023/04/24 16:34:26;;;;;;;7.93;1.60;;;;;;;;;;4898306;28;20055;-66
2023/04/24 16:38:06;;;;;;;7.05;1.80;;;;;;;;;;4900871;28;20082;-64
2023/04/24 16:41:48;;;;;;;5.38;1.85;;;;;;;;;;4908981;29;20102;-67
2023/04/24 16:45:27;;;;;;;26.00;2.28;;;;;;;;;;4911347;28;20821;-65
2023/04/24 16:49:08;;;;;;;5.38;1.60;;;;;;;;;;4909813;28;20091;-63
2023/04/24 16:52:48;;;;;;;6.60;1.63;;;;;;;;;;4911173;28;20073;-65
2023/04/24 16:56:28;;;;;;;7.13;1.80;;;;;;;;;;4909361;28;20563;-65
2023/04/24 17:00:10;;;;;;;6.28;1.75;;;;;;;;;;4909564;28;20049;-64
2023/04/24 17:03:50;;;;;;;5.38;1.67;;;;;;;;;;4910869;28;20144;-65
2023/04/24 17:07:31;;;;;;;6.53;1.70;;;;;;;;;;4912696;28;20110;-65
2023/04/24 17:11:14;;;;;;;5.15;1.83;;;;;;;;;;4913079;28;20068;-67
2023/04/24 17:14:54;;;;;;;4.32;1.67;;;;;;;;;;4915028;28;20047;-66
2023/04/24 17:18:35;;;;;;;5.78;2.10;;;;;;;;;;4914040;28;20048;-64
2023/04/24 17:22:16;;;;;;;9.30;2.10;;;;;;;;;;4912778;28;20475;-64
2023/04/24 17:25:57;;;;;;;4.82;1.90;;;;;;;;;;4917190;28;20048;-66
2023/04/24 17:29:37;;;;;;;6.55;2.05;;;;;;;;;;4915973;28;20378;-64
2023/04/24 17:33:19;;;;;;;5.78;1.67;;;;;;;;;;4912395;28;20063;-66
2023/04/24 17:36:59;;;;;;;5.68;1.70;;;;;;;;;;4913932;28;20452;-65
2023/04/24 17:40:39;;;;;;;8.20;1.75;;;;;;;;;;4913685;28;20051;-66
2023/04/24 17:44:20;;;;;;;8.25;1.90;;;;;;;;;;4909914;28;20469;-65
2023/04/24 17:48:01;;;;;;;6.07;1.95;;;;;;;;;;4909428;28;20066;-67
2023/04/24 17:51:43;;;;;;;4.43;1.58;;;;;;;;;;4914515;28;20059;-64
2023/04/24 17:55:23;;;;;;;6.07;1.98;;;;;;;;;;4909464;28;20051;-66
2023/04/24 17:59:03;;;;;;;8.48;2.30;;;;;;;;;;4912011;28;20056;-67
2023/04/24 18:02:44;;;;;;;3.67;1.70;;;;;;;;;;4909991;28;20067;-65
2023/04/24 18:06:25;;;;;;;5.55;1.52;;;;;;;;;;4908817;28;20142;-65
2023/04/24 18:10:05;;;;;;;5.93;1.60;;;;;;;;;;4914816;28;20059;-66
2023/04/24 18:13:45;;;;;;;6.95;2.47;;;;;;;;;;4913694;28;20377;-66
2023/04/24 18:17:26;;;;;;;5.57;2.10;;;;;;;;;;4911307;29;20059;-64
2023/04/24 18:21:06;;;;;;;4.70;1.88;;;;;;;;;;4924454;28;20074;-65